Time;durP1;ratioP1;P1;durP2;ratioP2;P2;SDS_P1;SDS_P2;PMS_P1;PMS_P2;Temp;Humidity;BMP_temperature;BMP_pressure;BME280_temperature;BME280_humidity;BME280_pressure;Samples;Min_cycle;Max_cycle;Signal;HPM_P1;HPM_P2
2022/06/05 00:01:19;;;;;;;2.08;1.88;;;23.70;99.90;;;;;;5115468;28;20020;-59
2022/06/05 00:03:51;;;;;;;2.25;1.30;;;23.70;99.90;;;;;;5115210;28;20066;-62
2022/06/05 00:06:26;;;;;;;2.85;1.73;;;23.60;99.90;;;;;;5115043;28;20052;-64
2022/06/05 00:09:13;;;;;;;2.63;2.00;;;23.60;99.90;;;;;;5115198;28;20089;-60
2022/06/05 00:12:05;;;;;;;2.15;2.00;;;23.60;99.90;;;;;;5115159;28;20378;-60
2022/06/05 00:14:31;;;;;;;1.88;1.42;;;23.50;99.90;;;;;;5104289;28;20065;-60
2022/06/05 00:16:56;;;;;;;2.60;1.48;;;23.50;99.90;;;;;;5115125;28;20024;-63
2022/06/05 00:19:22;;;;;;;2.72;1.70;;;23.50;99.90;;;;;;5115038;28;20039;-63
2022/06/05 00:21:49;;;;;;;2.47;1.95;;;23.40;99.90;;;;;;5114894;28;20240;-62
2022/06/05 00:24:15;;;;;;;2.17;1.70;;;23.40;99.90;;;;;;5115113;28;20024;-63
2022/06/05 00:27:18;;;;;;;3.42;2.25;;;23.40;99.90;;;;;;5114826;28;20024;-60
2022/06/05 00:29:52;;;;;;;2.95;2.08;;;23.40;99.90;;;;;;5085000;28;20028;-62
2022/06/05 00:32:50;;;;;;;2.83;2.10;;;23.30;99.90;;;;;;5114685;28;20015;-64
2022/06/05 00:35:18;;;;;;;2.75;2.05;;;23.30;99.90;;;;;;5110008;28;20042;-61
2022/06/05 00:38:08;;;;;;;2.45;2.22;;;23.30;99.90;;;;;;5114883;28;20056;-60
2022/06/05 00:40:53;;;;;;;3.47;2.15;;;23.30;99.90;;;;;;5114674;28;20024;-63
2022/06/05 00:43:22;;;;;;;2.05;1.75;;;23.20;99.90;;;;;;5114798;28;20107;-62
2022/06/05 00:45:47;;;;;;;2.85;2.20;;;23.20;99.90;;;;;;5114607;28;20030;-63
2022/06/05 00:48:13;;;;;;;2.83;2.17;;;23.20;99.90;;;;;;5114388;28;20024;-60
2022/06/05 00:50:42;;;;;;;3.47;2.00;;;23.10;99.90;;;;;;5114476;28;20023;-63
2022/06/05 00:53:09;;;;;;;2.50;2.20;;;23.10;99.90;;;;;;5114633;28;20024;-63
2022/06/05 00:55:39;;;;;;;2.67;2.20;;;23.10;99.90;;;;;;5114008;28;20028;-62
2022/06/05 00:58:05;;;;;;;2.85;2.10;;;23.00;99.90;;;;;;5114399;28;20419;-62
2022/06/05 01:00:35;;;;;;;2.28;2.08;;;23.00;99.90;;;;;;5114489;28;20028;-64
2022/06/05 01:03:05;;;;;;;1.83;1.70;;;23.00;99.90;;;;;;5114194;28;20031;-60
2022/06/05 01:05:31;;;;;;;1.98;1.77;;;23.00;99.90;;;;;;5114191;28;20020;-60
2022/06/05 01:07:57;;;;;;;2.85;2.30;;;23.00;99.90;;;;;;5114101;28;20023;-62
2022/06/05 01:10:33;;;;;;;3.72;1.77;;;22.90;99.90;;;;;;5114015;28;20023;-64
2022/06/05 01:13:19;;;;;;;3.70;2.13;;;22.90;99.90;;;;;;5114036;28;20023;-59
2022/06/05 01:16:00;;;;;;;3.83;2.08;;;22.80;99.90;;;;;;5113470;28;20401;-60
2022/06/05 01:19:03;;;;;;;2.30;2.10;;;22.80;99.90;;;;;;5113878;28;20026;-62
2022/06/05 01:21:53;;;;;;;3.75;2.33;;;22.80;99.90;;;;;;5114060;28;20020;-65
2022/06/05 01:24:52;;;;;;;2.38;1.80;;;22.80;99.90;;;;;;5114059;28;20024;-58
2022/06/05 01:27:24;;;;;;;2.83;1.80;;;22.80;99.90;;;;;;5114150;28;20028;-64
2022/06/05 01:30:03;;;;;;;2.10;1.90;;;22.80;99.90;;;;;;5113874;28;20087;-60
2022/06/05 01:32:40;;;;;;;2.80;2.03;;;22.80;99.90;;;;;;5113516;28;20020;-62
2022/06/05 01:35:19;;;;;;;1.90;1.70;;;22.70;99.90;;;;;;5113946;28;20100;-62
2022/06/05 01:38:02;;;;;;;2.90;1.80;;;22.70;99.90;;;;;;5113972;28;20056;-61
2022/06/05 01:40:32;;;;;;;3.13;2.15;;;22.70;99.90;;;;;;5113789;28;20031;-61
2022/06/05 01:43:09;;;;;;;2.58;2.20;;;22.60;99.90;;;;;;5113489;28;20089;-61
2022/06/05 01:45:47;;;;;;;2.47;2.28;;;22.50;99.90;;;;;;5113824;28;20026;-62
2022/06/05 01:48:20;;;;;;;5.10;2.90;;;22.60;99.90;;;;;;5117613;28;20019;-60
2022/06/05 01:50:51;;;;;;;2.78;2.13;;;22.50;99.90;;;;;;5118296;28;20081;-65
2022/06/05 01:53:31;;;;;;;3.28;1.98;;;22.40;99.90;;;;;;5117802;28;20020;-65
2022/06/05 01:56:09;;;;;;;3.78;2.40;;;22.30;99.90;;;;;;5117823;28;20048;-61
2022/06/05 01:59:12;;;;;;;2.78;2.22;;;22.40;99.90;;;;;;5117675;28;20028;-63
2022/06/05 02:01:43;;;;;;;2.63;1.85;;;22.30;99.90;;;;;;5034806;28;20026;-63
2022/06/05 02:04:12;;;;;;;3.78;2.15;;;22.30;99.90;;;;;;5105158;28;20035;-64
2022/06/05 02:06:58;;;;;;;2.40;1.92;;;22.30;99.90;;;;;;5117844;28;20016;-63
2022/06/05 02:09:31;;;;;;;1.95;1.60;;;22.30;99.90;;;;;;5117511;28;20026;-63
2022/06/05 02:11:57;;;;;;;;;;;22.30;99.90;;;;;;5118075;28;20073;-60
2022/06/05 02:14:25;;;;;;;2.80;1.95;;;22.30;99.90;;;;;;5117408;28;19907;-61
2022/06/05 02:16:52;;;;;;;3.22;1.90;;;22.30;99.90;;;;;;5117180;28;20465;-64
2022/06/05 02:19:21;;;;;;;1.75;1.60;;;22.30;99.90;;;;;;5117623;28;20023;-62
2022/06/05 02:21:48;;;;;;;1.40;1.30;;;22.30;99.90;;;;;;5117174;28;20031;-62
2022/06/05 02:24:15;;;;;;;1.50;1.40;;;22.30;99.90;;;;;;5117501;28;20426;-61
2022/06/05 02:26:41;;;;;;;2.13;1.90;;;22.30;99.90;;;;;;5117259;28;20386;-63
2022/06/05 02:29:20;;;;;;;5.45;1.90;;;22.20;99.90;;;;;;5117026;28;20022;-61
2022/06/05 02:31:48;;;;;;;2.75;1.80;;;22.20;99.90;;;;;;5117172;28;20359;-61
2022/06/05 02:34:31;;;;;;;1.80;1.70;;;22.10;99.90;;;;;;5117047;28;20097;-65
2022/06/05 02:37:19;;;;;;;2.97;2.20;;;22.10;99.90;;;;;;5117056;28;20043;-62
2022/06/05 02:39:59;;;;;;;3.58;2.13;;;22.10;99.90;;;;;;5116873;28;20686;-61
2022/06/05 02:42:36;;;;;;;1.60;1.50;;;22.10;99.90;;;;;;5116990;28;20051;-62
2022/06/05 02:45:13;;;;;;;1.70;1.60;;;22.10;99.90;;;;;;5116985;28;20069;-62
2022/06/05 02:47:46;;;;;;;2.03;1.50;;;22.10;99.90;;;;;;5116832;28;20044;-64
2022/06/05 02:50:35;;;;;;;2.03;1.60;;;22.10;99.90;;;;;;5116713;28;20016;-65
2022/06/05 02:53:07;;;;;;;2.67;1.85;;;22.10;99.90;;;;;;5116756;28;20473;-64
2022/06/05 02:55:33;;;;;;;3.47;1.63;;;22.00;99.90;;;;;;5116425;28;20032;-62
2022/06/05 02:57:59;;;;;;;1.60;1.50;;;21.90;99.90;;;;;;5116315;28;20024;-64
2022/06/05 03:00:28;;;;;;;1.90;1.50;;;21.90;99.90;;;;;;5116649;28;20024;-63
2022/06/05 03:05:39;;;;;;;3.83;1.83;;;21.90;99.90;;;;;;5116626;28;20030;-66
2022/06/05 03:08:06;;;;;;;2.08;1.65;;;21.90;99.90;;;;;;5116395;28;20020;-58
2022/06/05 03:10:32;;;;;;;2.50;1.80;;;21.90;99.90;;;;;;5116655;28;20019;-59
2022/06/05 03:12:58;;;;;;;3.95;1.85;;;21.80;99.90;;;;;;5116377;28;20535;-60
2022/06/05 03:15:23;;;;;;;1.80;1.70;;;21.70;99.90;;;;;;5116282;28;20393;-60
2022/06/05 03:17:49;;;;;;;1.65;1.55;;;21.70;99.90;;;;;;5116146;28;20553;-63
2022/06/05 03:20:17;;;;;;;1.70;1.50;;;21.70;99.90;;;;;;5116448;28;20106;-58
2022/06/05 03:22:43;;;;;;;1.60;1.50;;;21.70;99.90;;;;;;5116029;28;20027;-60
2022/06/05 03:25:14;;;;;;;2.40;1.60;;;21.70;99.90;;;;;;5116177;28;20036;-63
2022/06/05 03:27:40;;;;;;;2.30;1.50;;;21.70;99.90;;;;;;5116078;28;20103;-59
2022/06/05 03:30:06;;;;;;;1.70;1.60;;;21.80;99.90;;;;;;5115765;28;20426;-62
2022/06/05 03:32:32;;;;;;;2.17;1.65;;;21.80;99.90;;;;;;5115993;28;20099;-61
2022/06/05 03:34:58;;;;;;;2.55;1.48;;;21.80;99.90;;;;;;5115967;28;20158;-63
2022/06/05 03:37:23;;;;;;;2.25;1.60;;;21.80;99.90;;;;;;5116142;28;20465;-62
2022/06/05 03:39:49;;;;;;;2.85;1.60;;;21.80;99.90;;;;;;5115742;28;20059;-61
2022/06/05 03:42:15;;;;;;;3.13;1.92;;;21.80;99.90;;;;;;5115973;28;20030;-62
2022/06/05 03:44:42;;;;;;;2.67;2.03;;;21.80;99.90;;;;;;5115491;28;20106;-59
2022/06/05 03:47:08;;;;;;;2.75;1.75;;;21.70;99.90;;;;;;5115582;28;20015;-60
2022/06/05 03:49:35;;;;;;;1.60;1.50;;;21.70;99.90;;;;;;5115637;28;20416;-64
2022/06/05 03:52:02;;;;;;;1.80;1.40;;;21.70;99.90;;;;;;5115567;28;20486;-62
2022/06/05 03:54:28;;;;;;;2.20;1.65;;;21.80;99.90;;;;;;5115456;28;20032;-64
2022/06/05 03:56:53;;;;;;;2.22;1.67;;;21.80;99.90;;;;;;5115452;28;20055;-64
2022/06/05 03:59:19;;;;;;;2.80;2.00;;;21.90;99.90;;;;;;5115213;28;20077;-63
2022/06/05 04:01:44;;;;;;;2.17;1.40;;;21.90;99.90;;;;;;5115363;28;20024;-59
2022/06/05 04:04:10;;;;;;;3.92;2.10;;;21.80;99.90;;;;;;5115572;28;20028;-62
2022/06/05 04:06:36;;;;;;;2.55;2.33;;;21.80;99.90;;;;;;5115265;28;20024;-64
2022/06/05 04:09:05;;;;;;;4.18;2.10;;;21.90;99.90;;;;;;5114464;28;20016;-62
2022/06/05 04:11:33;;;;;;;2.80;1.98;;;21.90;99.90;;;;;;5115210;28;20474;-61
2022/06/05 04:13:59;;;;;;;1.80;1.60;;;21.90;99.90;;;;;;5114887;28;20024;-60
2022/06/05 04:16:27;;;;;;;3.03;2.05;;;21.90;99.90;;;;;;5115048;28;20032;-59
2022/06/05 04:18:54;;;;;;;3.25;2.20;;;21.90;99.90;;;;;;5115303;28;20042;-61
2022/06/05 04:21:24;;;;;;;2.88;2.20;;;22.00;99.90;;;;;;5114967;28;20024;-60
2022/06/05 04:23:51;;;;;;;2.80;2.40;;;22.00;99.90;;;;;;5115096;28;20023;-61
2022/06/05 04:26:21;;;;;;;2.75;2.50;;;22.00;99.90;;;;;;5115088;28;20080;-61
2022/06/05 04:28:47;;;;;;;2.58;2.33;;;22.00;99.90;;;;;;5114893;28;20095;-60
2022/06/05 04:31:25;;;;;;;2.60;2.40;;;22.10;99.90;;;;;;5114738;28;20526;-63
2022/06/05 04:33:53;;;;;;;2.72;2.20;;;22.10;99.90;;;;;;5114872;28;20023;-62
2022/06/05 04:36:19;;;;;;;3.47;2.58;;;22.10;99.90;;;;;;5114563;28;20020;-62
2022/06/05 04:38:45;;;;;;;2.40;2.20;;;22.10;99.90;;;;;;5114802;28;20031;-60
2022/06/05 04:41:12;;;;;;;2.97;2.58;;;22.00;99.90;;;;;;5114556;28;20023;-61
2022/06/05 04:43:39;;;;;;;2.40;2.20;;;22.00;99.90;;;;;;5114656;28;20039;-63
2022/06/05 04:46:05;;;;;;;3.58;2.55;;;22.10;99.90;;;;;;5114330;28;20026;-59
2022/06/05 04:48:32;;;;;;;2.55;2.33;;;22.20;99.90;;;;;;5114781;28;20030;-62
2022/06/05 04:50:58;;;;;;;3.33;2.78;;;22.30;99.90;;;;;;5114722;28;20023;-61
2022/06/05 04:53:23;;;;;;;2.53;2.33;;;22.30;99.90;;;;;;5114624;28;20014;-61
2022/06/05 04:55:49;;;;;;;2.83;2.17;;;22.40;99.90;;;;;;5114419;28;20118;-60
2022/06/05 04:58:15;;;;;;;3.10;2.80;;;22.50;99.90;;;;;;5114176;28;20078;-61
2022/06/05 05:00:41;;;;;;;4.55;2.90;;;22.50;99.90;;;;;;5114198;28;20023;-62
2022/06/05 05:03:06;;;;;;;3.25;2.40;;;22.30;99.90;;;;;;5114502;28;20421;-60
2022/06/05 05:05:34;;;;;;;2.88;2.15;;;22.30;99.90;;;;;;5114420;28;20031;-61
2022/06/05 05:08:00;;;;;;;3.47;2.70;;;22.40;99.90;;;;;;5114103;28;20027;-59
2022/06/05 05:10:26;;;;;;;5.03;3.00;;;22.40;99.90;;;;;;5114135;28;20028;-63
2022/06/05 05:12:52;;;;;;;2.97;2.63;;;22.40;99.90;;;;;;5113954;28;20640;-65
2022/06/05 05:15:18;;;;;;;3.30;3.00;;;22.40;99.90;;;;;;5114073;28;20024;-65
2022/06/05 05:17:44;;;;;;;3.60;2.70;;;22.40;99.90;;;;;;5114245;28;20072;-64
2022/06/05 05:20:10;;;;;;;5.00;2.83;;;22.40;99.90;;;;;;5114070;28;20020;-59
2022/06/05 05:22:38;;;;;;;2.55;2.35;;;22.50;99.90;;;;;;5113932;28;20474;-64
2022/06/05 05:25:09;;;;;;;2.70;2.50;;;22.50;99.90;;;;;;5113834;28;20027;-60
2022/06/05 05:27:36;;;;;;;3.55;2.28;;;22.60;99.90;;;;;;5113882;28;20019;-61
2022/06/05 05:30:04;;;;;;;3.45;2.15;;;22.70;99.90;;;;;;5113914;28;20019;-64
2022/06/05 05:32:30;;;;;;;2.85;2.47;;;22.90;99.90;;;;;;5113783;28;20038;-65
2022/06/05 05:34:55;;;;;;;2.72;2.10;;;23.00;99.90;;;;;;5113642;28;20027;-59
2022/06/05 05:37:21;;;;;;;3.50;2.58;;;23.10;99.90;;;;;;5113976;28;20024;-61
2022/06/05 05:42:32;;;;;;;2.65;2.45;;;23.20;99.90;;;;;;5114021;28;20104;-60
2022/06/05 05:44:59;;;;;;;3.03;2.40;;;23.40;99.90;;;;;;5113599;28;20016;-60
2022/06/05 05:47:28;;;;;;;3.15;2.67;;;23.40;99.90;;;;;;5113670;28;20098;-60
2022/06/05 05:49:57;;;;;;;2.90;2.28;;;23.50;99.90;;;;;;5113751;28;20015;-60
2022/06/05 05:52:24;;;;;;;4.60;2.60;;;23.60;99.90;;;;;;5113501;28;20137;-62
2022/06/05 05:54:50;;;;;;;3.58;2.75;;;23.70;99.90;;;;;;5113695;28;20047;-59
2022/06/05 05:57:16;;;;;;;3.58;2.95;;;23.70;99.90;;;;;;5113423;28;20086;-63
2022/06/05 05:59:42;;;;;;;3.22;2.90;;;23.80;99.90;;;;;;5113557;28;20054;-62
2022/06/05 06:02:13;;;;;;;2.70;2.50;;;23.90;99.90;;;;;;5113548;28;20077;-64
2022/06/05 06:04:41;;;;;;;3.30;2.45;;;24.10;99.90;;;;;;5113702;28;20058;-62
2022/06/05 06:07:07;;;;;;;2.70;2.50;;;24.30;99.90;;;;;;5113426;28;20069;-63
2022/06/05 06:09:33;;;;;;;3.35;2.30;;;24.50;99.90;;;;;;5113548;28;20035;-63
2022/06/05 06:11:59;;;;;;;2.17;1.83;;;24.60;99.90;;;;;;5113705;28;20023;-62
2022/06/05 06:14:25;;;;;;;2.28;1.92;;;24.80;99.90;;;;;;5113304;28;20478;-62
2022/06/05 06:16:51;;;;;;;2.05;1.95;;;24.90;99.90;;;;;;5113378;28;20042;-60
2022/06/05 06:19:17;;;;;;;3.58;2.15;;;25.00;99.90;;;;;;5113675;28;20386;-63
2022/06/05 06:21:43;;;;;;;2.40;2.20;;;25.20;99.90;;;;;;5113524;28;20035;-61
2022/06/05 06:24:09;;;;;;;3.30;2.45;;;25.30;99.90;;;;;;5113111;28;20415;-63
2022/06/05 06:26:34;;;;;;;3.20;1.92;;;25.40;99.90;;;;;;5113552;28;20031;-62
2022/06/05 06:29:00;;;;;;;4.45;2.13;;;25.50;99.90;;;;;;5113221;28;20386;-63
2022/06/05 06:31:25;;;;;;;4.53;2.70;;;25.70;99.90;;;;;;5113490;28;20489;-62
2022/06/05 06:33:51;;;;;;;1.98;1.88;;;25.80;99.90;;;;;;5117055;28;20484;-62
2022/06/05 06:36:18;;;;;;;3.33;2.40;;;26.00;99.90;;;;;;5116949;28;20032;-60
2022/06/05 06:38:44;;;;;;;5.38;2.80;;;26.10;99.90;;;;;;5116743;28;20062;-59
2022/06/05 06:41:18;;;;;;;4.38;2.78;;;26.30;99.90;;;;;;5117253;28;20104;-63
2022/06/05 06:43:45;;;;;;;2.67;2.47;;;26.30;99.90;;;;;;5116876;28;20024;-59
2022/06/05 06:46:12;;;;;;;2.90;2.30;;;26.50;99.90;;;;;;5116784;28;20485;-63
2022/06/05 06:48:38;;;;;;;4.00;2.60;;;26.60;99.90;;;;;;5117124;28;20106;-62
2022/06/05 06:51:05;;;;;;;3.92;2.22;;;26.80;99.90;;;;;;5116719;28;20106;-61
2022/06/05 06:53:33;;;;;;;4.53;2.50;;;27.00;99.90;;;;;;5117094;28;20401;-61
2022/06/05 06:55:59;;;;;;;3.60;2.47;;;27.10;99.90;;;;;;5116644;28;20084;-60
2022/06/05 06:58:25;;;;;;;3.35;2.58;;;27.20;99.90;;;;;;5116711;28;20023;-60
2022/06/05 07:00:51;;;;;;;4.38;3.10;;;27.30;99.90;;;;;;5116497;28;20024;-61
2022/06/05 07:03:17;;;;;;;2.70;2.50;;;27.40;99.90;;;;;;5116632;28;20023;-63
2022/06/05 07:05:42;;;;;;;4.28;3.42;;;27.40;99.90;;;;;;5116397;28;20023;-60
2022/06/05 07:08:09;;;;;;;4.20;3.10;;;27.40;99.90;;;;;;5116185;28;20024;-62
2022/06/05 07:10:37;;;;;;;3.38;2.75;;;27.50;99.90;;;;;;5116425;28;20019;-60
2022/06/05 07:13:03;;;;;;;6.22;3.30;;;27.60;99.90;;;;;;5116371;28;20035;-61
2022/06/05 07:15:34;;;;;;;4.32;2.80;;;27.80;99.90;;;;;;5116424;28;20027;-65
2022/06/05 07:18:07;;;;;;;5.65;3.25;;;27.90;99.90;;;;;;5116509;28;20027;-60
2022/06/05 07:20:38;;;;;;;4.32;3.17;;;28.00;99.90;;;;;;5116153;28;20058;-58
2022/06/05 07:23:05;;;;;;;4.68;3.45;;;28.20;99.90;;;;;;5097943;28;20031;-58
2022/06/05 07:25:33;;;;;;;3.95;2.97;;;28.30;99.90;;;;;;5116147;28;20027;-61
2022/06/05 07:27:58;;;;;;;3.47;3.17;;;28.40;99.90;;;;;;5116260;28;20103;-60
2022/06/05 07:30:25;;;;;;;3.25;2.95;;;28.50;99.90;;;;;;5116317;28;20103;-61
2022/06/05 07:32:51;;;;;;;3.67;3.00;;;28.70;99.90;;;;;;5115907;28;20020;-61
2022/06/05 07:35:18;;;;;;;4.97;3.20;;;28.80;99.90;;;;;;5115785;28;20106;-62
2022/06/05 07:37:44;;;;;;;5.13;3.20;;;29.00;99.90;;;;;;5115573;28;20028;-60
2022/06/05 07:40:10;;;;;;;3.58;3.17;;;30.00;99.90;;;;;;5115779;28;20031;-64
2022/06/05 07:42:40;;;;;;;5.25;2.63;;;32.20;96.30;;;;;;5115826;28;20106;-63
2022/06/05 07:45:07;;;;;;;5.10;3.20;;;34.30;92.00;;;;;;5114685;28;20106;-61
2022/06/05 07:47:33;;;;;;;4.57;3.28;;;36.00;81.30;;;;;;5116054;28;20084;-62
2022/06/05 07:49:58;;;;;;;3.67;2.85;;;36.70;73.00;;;;;;5115745;28;20019;-63
2022/06/05 07:55:26;;;;;;;3.92;3.35;;;38.50;66.40;;;;;;5052504;28;20025;-61
2022/06/05 07:57:51;;;;;;;5.13;3.30;;;39.10;65.60;;;;;;5102414;28;20398;-63
2022/06/05 08:00:17;;;;;;;3.60;3.30;;;39.40;61.80;;;;;;5115539;28;20051;-61
2022/06/05 08:02:43;;;;;;;5.35;2.97;;;39.40;58.40;;;;;;5115247;28;20036;-61
2022/06/05 08:05:09;;;;;;;3.05;2.45;;;39.30;58.10;;;;;;5115159;28;20036;-62
2022/06/05 08:07:36;;;;;;;4.00;3.03;;;39.70;58.40;;;;;;5115517;28;20033;-63
2022/06/05 08:10:04;;;;;;;5.07;2.80;;;40.00;54.70;;;;;;5115232;28;20024;-63
2022/06/05 08:12:34;;;;;;;3.97;2.90;;;40.10;54.20;;;;;;5115141;28;20048;-61
2022/06/05 08:15:08;;;;;;;3.35;2.63;;;39.70;55.00;;;;;;5115459;28;20057;-62
2022/06/05 08:17:34;;;;;;;5.00;2.70;;;39.80;55.50;;;;;;5114981;28;20024;-63
2022/06/05 08:20:00;;;;;;;4.45;2.78;;;39.90;53.00;;;;;;5114870;28;20080;-62
2022/06/05 08:22:27;;;;;;;2.70;2.50;;;39.90;52.60;;;;;;5114964;28;20102;-64
2022/06/05 08:24:52;;;;;;;3.28;2.50;;;40.20;55.40;;;;;;5114728;28;20073;-60
2022/06/05 08:27:23;;;;;;;3.35;3.03;;;40.90;53.80;;;;;;5115163;28;20023;-62
2022/06/05 08:29:49;;;;;;;3.47;2.50;;;40.50;49.20;;;;;;5114844;28;20019;-63
2022/06/05 08:32:16;;;;;;;3.55;2.60;;;40.20;49.80;;;;;;5114991;28;20047;-64
2022/06/05 08:34:43;;;;;;;3.47;2.97;;;40.60;50.80;;;;;;5114534;28;20032;-61
2022/06/05 08:43:05;;;;;;;4.03;2.70;;;41.50;49.90;;;;;;5114710;28;20061;-60
2022/06/05 08:45:42;;;;;;;3.70;2.72;;;41.70;49.60;;;;;;5114515;28;20099;-61
2022/06/05 08:48:18;;;;;;;3.30;2.70;;;41.50;48.60;;;;;;5114251;28;20057;-63
2022/06/05 08:50:48;;;;;;;3.30;2.55;;;41.40;51.10;;;;;;5114773;28;20023;-62
2022/06/05 08:53:39;;;;;;;3.95;3.10;;;41.60;50.40;;;;;;5114383;28;20531;-63
2022/06/05 08:56:07;;;;;;;4.65;2.88;;;41.80;49.20;;;;;;5113525;28;20497;-60
2022/06/05 08:58:46;;;;;;;3.55;3.20;;;41.90;49.10;;;;;;5114508;28;20031;-63
2022/06/05 09:01:32;;;;;;;3.20;2.70;;;41.80;48.00;;;;;;5114246;28;20505;-65
2022/06/05 09:04:15;;;;;;;10.18;4.03;;;41.30;48.60;;;;;;5114193;28;20024;-60
2022/06/05 09:06:46;;;;;;;4.00;3.20;;;40.70;49.70;;;;;;5114199;28;20024;-61
2022/06/05 09:09:26;;;;;;;3.92;2.90;;;40.60;49.70;;;;;;5114345;28;20108;-59
2022/06/05 09:12:03;;;;;;;3.30;3.00;;;41.20;48.00;;;;;;5114349;28;20019;-63
2022/06/05 09:14:43;;;;;;;3.08;2.65;;;41.60;46.20;;;;;;5113948;28;20104;-63
2022/06/05 09:17:13;;;;;;;2.58;2.20;;;41.50;47.70;;;;;;5113965;28;20027;-61
2022/06/05 09:19:39;;;;;;;5.93;2.80;;;41.50;47.10;;;;;;5113897;28;20024;-60
2022/06/05 09:22:19;;;;;;;5.00;2.65;;;41.30;47.80;;;;;;5114279;28;20382;-63
2022/06/05 09:25:12;;;;;;;2.63;2.22;;;41.20;48.00;;;;;;5113935;28;20023;-63
2022/06/05 09:27:56;;;;;;;2.05;1.90;;;41.20;49.60;;;;;;5114113;28;20019;-62
2022/06/05 09:30:39;;;;;;;3.03;2.30;;;41.30;47.70;;;;;;5114009;28;20028;-64
2022/06/05 09:33:25;;;;;;;4.47;2.20;;;41.50;44.90;;;;;;5113718;28;20417;-61
2022/06/05 09:36:01;;;;;;;2.53;2.00;;;41.60;47.20;;;;;;5113697;28;20035;-60
2022/06/05 09:38:56;;;;;;;3.28;2.00;;;41.80;45.50;;;;;;5113661;28;20031;-61
2022/06/05 09:41:59;;;;;;;2.17;1.60;;;42.00;48.50;;;;;;5082316;28;20035;-65
2022/06/05 09:44:50;;;;;;;5.05;2.08;;;42.10;45.80;;;;;;5111119;28;20039;-63
2022/06/05 09:47:41;;;;;;;3.40;2.60;;;41.90;47.20;;;;;;5113741;28;20065;-60
2022/06/05 09:50:25;;;;;;;3.35;2.40;;;41.60;43.20;;;;;;5102439;28;20115;-63
2022/06/05 09:52:51;;;;;;;5.05;2.17;;;41.40;42.60;;;;;;5113643;28;20030;-62
2022/06/05 09:55:30;;;;;;;2.30;1.70;;;41.40;43.40;;;;;;5113346;28;20020;-63
2022/06/05 09:58:27;;;;;;;2.50;2.20;;;41.50;44.10;;;;;;5113575;28;20409;-60
2022/06/05 10:00:55;;;;;;;3.67;2.80;;;41.00;42.90;;;;;;5113650;28;20028;-61
2022/06/05 10:03:35;;;;;;;2.17;1.98;;;40.60;41.40;;;;;;5113623;28;20077;-61
2022/06/05 10:06:31;;;;;;;3.97;1.90;;;40.60;42.20;;;;;;5113661;28;20023;-65
2022/06/05 10:09:06;;;;;;;2.20;1.80;;;40.70;40.50;;;;;;5117609;28;20470;-63
2022/06/05 10:11:44;;;;;;;2.88;1.90;;;40.70;42.80;;;;;;5117581;28;20107;-61
2022/06/05 10:14:32;;;;;;;3.17;1.60;;;40.90;45.60;;;;;;5117531;28;20463;-60
2022/06/05 10:17:35;;;;;;;1.98;1.50;;;41.20;45.70;;;;;;5117524;28;20025;-61
2022/06/05 10:20:12;;;;;;;3.42;2.13;;;41.40;44.30;;;;;;5117376;28;20051;-61
2022/06/05 10:22:40;;;;;;;4.32;2.10;;;41.00;42.10;;;;;;5117362;28;20020;-63
2022/06/05 10:25:30;;;;;;;2.70;2.05;;;40.60;43.50;;;;;;5117232;28;20138;-61
2022/06/05 10:28:28;;;;;;;5.22;2.00;;;40.60;47.20;;;;;;5117249;28;20016;-61
2022/06/05 10:31:04;;;;;;;3.20;1.88;;;40.80;41.60;;;;;;5101068;28;20028;-62
2022/06/05 10:33:42;;;;;;;2.97;2.15;;;40.80;44.80;;;;;;5117179;28;20027;-63
2022/06/05 10:36:13;;;;;;;2.95;2.00;;;41.00;43.50;;;;;;5117071;28;20524;-63
2022/06/05 10:38:49;;;;;;;;;;;41.00;42.30;;;;;;5117668;28;20136;-61
2022/06/05 10:41:25;;;;;;;4.10;2.38;;;41.00;46.10;;;;;;5117027;28;19910;-62
2022/06/05 10:44:28;;;;;;;3.65;2.05;;;40.80;42.70;;;;;;5116919;28;20020;-64
2022/06/05 10:47:13;;;;;;;3.03;2.50;;;41.00;44.90;;;;;;5116797;28;20027;-60
2022/06/05 10:49:49;;;;;;;2.13;1.88;;;40.60;44.70;;;;;;5117130;28;20110;-62
2022/06/05 10:52:25;;;;;;;2.03;1.70;;;41.00;42.70;;;;;;5116707;28;20528;-62
2022/06/05 10:55:39;;;;;;;3.55;2.20;;;41.10;44.40;;;;;;5116754;28;20134;-61
2022/06/05 10:58:16;;;;;;;4.45;1.98;;;40.80;43.30;;;;;;5099180;28;20047;-59
2022/06/05 11:00:58;;;;;;;2.60;1.75;;;40.80;42.30;;;;;;5116387;28;20153;-64
2022/06/05 11:03:43;;;;;;;2.28;1.88;;;41.20;43.10;;;;;;5116674;28;20023;-61
2022/06/05 11:06:13;;;;;;;5.00;2.10;;;41.30;43.50;;;;;;5116602;28;20028;-60
2022/06/05 11:09:00;;;;;;;4.97;2.00;;;41.00;41.50;;;;;;5116505;28;20019;-62
2022/06/05 11:14:54;;;;;;;3.47;2.00;;;41.00;44.50;;;;;;5116458;28;20053;-61
2022/06/05 11:17:30;;;;;;;5.68;2.58;;;41.10;42.70;;;;;;5116413;28;20069;-64
2022/06/05 11:20:14;;;;;;;3.92;1.85;;;40.80;41.50;;;;;;5116461;28;20102;-61
2022/06/05 11:22:51;;;;;;;3.63;2.00;;;40.70;41.20;;;;;;5116400;28;20433;-63
2022/06/05 11:25:23;;;;;;;3.28;2.00;;;40.80;41.40;;;;;;5116070;28;20019;-64
2022/06/05 11:27:59;;;;;;;3.85;2.30;;;41.00;42.50;;;;;;5115924;28;20053;-63
2022/06/05 11:30:47;;;;;;;4.78;2.67;;;41.00;46.80;;;;;;5116078;28;20019;-64
2022/06/05 11:33:25;;;;;;;2.83;2.15;;;40.90;42.40;;;;;;5115938;28;20478;-61
2022/06/05 11:36:13;;;;;;;2.28;2.05;;;40.80;43.60;;;;;;5115860;28;20063;-62
2022/06/05 11:38:51;;;;;;;3.95;2.17;;;40.80;43.70;;;;;;5115821;28;20104;-61
2022/06/05 11:41:16;;;;;;;5.28;2.55;;;41.00;42.70;;;;;;5115846;28;20500;-61
2022/06/05 11:43:42;;;;;;;2.45;2.05;;;40.90;44.30;;;;;;5115827;28;20028;-64
2022/06/05 11:46:08;;;;;;;6.65;2.70;;;40.90;44.40;;;;;;5115700;28;20028;-64
2022/06/05 11:48:53;;;;;;;4.57;2.72;;;40.90;43.10;;;;;;5115785;28;20022;-61
2022/06/05 11:51:40;;;;;;;3.97;2.90;;;41.00;42.90;;;;;;5115848;28;20027;-62
2022/06/05 11:54:30;;;;;;;5.55;2.60;;;40.80;43.00;;;;;;5115617;28;20483;-63
2022/06/05 11:56:59;;;;;;;3.90;2.38;;;41.10;43.00;;;;;;5115490;28;20078;-60
2022/06/05 11:59:44;;;;;;;3.72;2.30;;;41.10;42.70;;;;;;5097257;28;20355;-62
2022/06/05 12:02:27;;;;;;;3.03;2.70;;;41.10;43.50;;;;;;5115538;28;20023;-60
2022/06/05 12:05:14;;;;;;;4.55;2.70;;;41.10;45.10;;;;;;5115159;28;20070;-60
2022/06/05 12:07:41;;;;;;;6.70;2.53;;;41.10;44.00;;;;;;5115354;28;20026;-63
2022/06/05 12:10:15;;;;;;;3.83;2.58;;;41.10;45.20;;;;;;5115213;28;20027;-64
2022/06/05 12:12:44;;;;;;;4.85;2.63;;;41.00;43.10;;;;;;5115134;28;20024;-63
2022/06/05 12:15:22;;;;;;;3.55;2.50;;;41.00;43.80;;;;;;5115239;28;20107;-64
2022/06/05 12:18:04;;;;;;;3.83;3.42;;;41.10;45.20;;;;;;5096852;28;20385;-62
2022/06/05 12:20:48;;;;;;;3.35;2.63;;;40.90;45.50;;;;;;5115366;28;20023;-62
2022/06/05 12:23:29;;;;;;;4.47;2.60;;;40.70;47.00;;;;;;5114982;28;20482;-61
2022/06/05 12:26:11;;;;;;;4.20;2.90;;;40.80;47.70;;;;;;5114614;28;20025;-64
2022/06/05 12:28:43;;;;;;;4.75;2.53;;;41.10;46.30;;;;;;5114929;28;20415;-63
2022/06/05 12:31:24;;;;;;;3.53;2.90;;;41.20;46.70;;;;;;5114251;28;20531;-62
2022/06/05 12:33:58;;;;;;;2.95;2.58;;;41.10;45.20;;;;;;5114936;28;20038;-62
2022/06/05 12:36:57;;;;;;;3.13;2.45;;;41.10;47.90;;;;;;5114638;28;20024;-60
2022/06/05 12:39:31;;;;;;;3.10;2.80;;;41.20;46.80;;;;;;5114771;28;20096;-64
2022/06/05 12:42:18;;;;;;;3.47;2.90;;;41.20;47.20;;;;;;5114714;28;20389;-63
2022/06/05 12:44:48;;;;;;;3.15;2.85;;;41.30;47.30;;;;;;5114748;28;20020;-63
2022/06/05 12:47:50;;;;;;;3.00;2.72;;;41.50;46.30;;;;;;5114518;28;20019;-61
2022/06/05 12:50:32;;;;;;;4.85;3.10;;;41.70;46.20;;;;;;5114385;28;20045;-61
2022/06/05 12:53:23;;;;;;;5.18;3.75;;;41.10;44.70;;;;;;5114577;28;20016;-64
2022/06/05 12:56:07;;;;;;;5.05;3.25;;;40.90;45.80;;;;;;5114247;28;20039;-60
2022/06/05 12:58:57;;;;;;;3.60;3.15;;;41.10;48.00;;;;;;5114279;28;20028;-60
2022/06/05 13:02:03;;;;;;;3.17;2.80;;;41.30;45.60;;;;;;5114413;28;20031;-61
2022/06/05 13:04:35;;;;;;;4.78;2.90;;;41.30;46.60;;;;;;5031678;28;20043;-62
2022/06/05 13:07:20;;;;;;;4.47;3.20;;;41.50;46.20;;;;;;5099981;28;20039;-63
2022/06/05 13:10:00;;;;;;;6.43;3.72;;;41.60;46.90;;;;;;5113930;28;20030;-61
2022/06/05 13:12:50;;;;;;;4.13;3.22;;;41.60;45.10;;;;;;5114134;28;20550;-65
2022/06/05 13:15:39;;;;;;;3.47;3.17;;;41.30;46.20;;;;;;5114092;28;20031;-63
2022/06/05 13:18:18;;;;;;;3.83;3.00;;;41.10;45.80;;;;;;5113994;28;20030;-65
2022/06/05 13:21:14;;;;;;;4.10;3.20;;;41.10;47.40;;;;;;5113907;28;20028;-61
2022/06/05 13:24:03;;;;;;;4.45;2.90;;;41.10;48.20;;;;;;5113963;28;20050;-64
2022/06/05 13:26:37;;;;;;;3.88;2.92;;;41.10;46.60;;;;;;5113856;28;20030;-60
2022/06/05 13:29:22;;;;;;;3.55;3.20;;;41.30;48.30;;;;;;5113875;28;20085;-61
2022/06/05 13:32:02;;;;;;;3.38;3.05;;;41.20;47.40;;;;;;5113918;28;20019;-64
2022/06/05 13:34:38;;;;;;;3.25;3.00;;;41.30;46.60;;;;;;5113692;28;20026;-63
2022/06/05 13:37:12;;;;;;;4.78;3.45;;;41.30;46.40;;;;;;5114090;28;20053;-61
2022/06/05 13:39:51;;;;;;;4.30;3.03;;;41.30;47.60;;;;;;5113458;28;20484;-62